This is the latest recevied weather packets stored in our database for station/object F4NFR-13. If no packets are shown the sender has not sent any weather packets the latest 1 day(s).
| Time | Temp. | Humidity | Pressure | Rain* | Wind** | Luminosity | Snow |
|---|---|---|---|---|---|---|---|
| 1777982036 | 15° C | 63% | 1012.3 hPa | 0 mm | 4.92 m/s, 44° | 110 W/m² | - |
| 1777981431 | 15° C | 60% | 1012.3 hPa | 0 mm | 6.71 m/s, 17° | 0 W/m² | - |
| 1777981129 | 17.22° C | 62% | 1012.3 hPa | 0 mm | 1.79 m/s, 72° | 0 W/m² | - |
| 1777980826 | 15° C | 60% | 1012.3 hPa | 0 mm | 4.02 m/s, 57° | 0 W/m² | - |
| 1777980524 | 15° C | 62% | 1012.3 hPa | 0 mm | 4.02 m/s, 20° | 166 W/m² | - |
| 1777980221 | 15° C | 63% | 1012.3 hPa | 0 mm | 4.02 m/s, 35° | 243 W/m² | - |
| 1777979919 | 15° C | 63% | 1012.3 hPa | 0 mm | 5.36 m/s, 23° | 92 W/m² | - |
| 1777979919 | 15° C | 63% | 1012.3 hPa | 0 mm | 5.36 m/s, 23° | 92 W/m² | - |
| 1777979616 | 15° C | 63% | 1012.3 hPa | 0 mm | 4.92 m/s, 15° | 105 W/m² | - |
| 1777979314 | 15° C | 64% | 1012.3 hPa | 0 mm | 3.58 m/s, 67° | 224 W/m² | - |
| 1777979012 | 13.89° C | 62% | 1012.7 hPa | 0 mm | 3.58 m/s, 41° | 124 W/m² | - |
| 1777978710 | 13.89° C | 63% | 1012.7 hPa | 0 mm | 6.26 m/s, 55° | 0 W/m² | - |
| 1777978407 | 15° C | 65% | 1012.7 hPa | 0 mm | 2.24 m/s, 83° | 78 W/m² | - |
| 1777978105 | 13.89° C | 63% | 1012.7 hPa | 0 mm | 5.81 m/s, 47° | 0 W/m² | - |
| 1777977802 | 15° C | 62% | 1012.7 hPa | 0 mm | 1.79 m/s, 45° | 0 W/m² | - |
| 1777977499 | 13.89° C | 63% | 1012.7 hPa | 0 mm | 4.92 m/s, 30° | 49 W/m² | - |
| 1777977197 | 15° C | 62% | 1013 hPa | 0 mm | 3.13 m/s, 82° | 215 W/m² | - |
| 1777976895 | 13.89° C | 60% | 1013 hPa | 0 mm | 5.36 m/s, 49° | 191 W/m² | - |
| 1777976592 | 15° C | 65% | 1013 hPa | 0 mm | 3.13 m/s, 91° | 197 W/m² | - |
| 1777975987 | 15° C | 64% | 1012.7 hPa | 0 mm | 4.92 m/s, 33° | 0 W/m² | - |
| 1777975685 | 13.89° C | 67% | 1013 hPa | 0 mm | 3.58 m/s, 39° | 155 W/m² | - |
| 1777975383 | 13.89° C | 64% | 1013 hPa | 0 mm | 6.26 m/s, 51° | 0 W/m² | - |
| 1777975080 | 13.89° C | 67% | 1013 hPa | 0 mm | 3.13 m/s, 20° | - | - |
| 1777974778 | 13.89° C | 68% | 1013 hPa | 0 mm | 4.92 m/s, 55° | - | - |
| 1777974476 | 12.78° C | 68% | 1012.7 hPa | 0 mm | 4.92 m/s, 19° | 0 W/m² | - |
* Rain latest hour (hover to see other rain measurements)
** Current wind speed in m/s (hover to see current wind gust speed)